Time;durP1;ratioP1;P1;durP2;ratioP2;P2;SDS_P1;SDS_P2;PMS_P1;PMS_P2;Temp;Humidity;BMP_temperature;BMP_pressure;BME280_temperature;BME280_humidity;BME280_pressure;Samples;Min_cycle;Max_cycle;Signal;HPM_P1;HPM_P2
2023/04/16 00:00:21;;;;;;;145.82;45.03;;;7.80;99.90;;;;;;5118139;27;20474;-87
2023/04/16 00:02:47;;;;;;;151.15;43.42;;;7.70;99.90;;;;;;5117007;27;20066;-88
2023/04/16 00:05:13;;;;;;;133.45;42.35;;;7.90;99.90;;;;;;5118920;27;20078;-88
2023/04/16 00:07:39;;;;;;;130.75;40.15;;;7.70;99.90;;;;;;5109540;27;20756;-87
2023/04/16 00:10:06;;;;;;;156.20;43.30;;;7.70;99.90;;;;;;5112172;27;20156;-89
2023/04/16 00:12:32;;;;;;;149.38;42.80;;;7.70;99.90;;;;;;5097913;27;20051;-89
2023/04/16 00:14:58;;;;;;;134.88;42.30;;;7.70;99.90;;;;;;5111985;27;20035;-89
2023/04/16 00:17:24;;;;;;;167.60;46.08;;;7.70;99.90;;;;;;5105932;27;20046;-89
2023/04/16 00:19:50;;;;;;;145.18;43.33;;;7.70;99.90;;;;;;5104865;27;20047;-89
2023/04/16 00:22:15;;;;;;;146.18;44.13;;;7.70;99.90;;;;;;5109425;27;20135;-89
2023/04/16 00:24:41;;;;;;;170.98;47.13;;;7.70;99.90;;;;;;5113471;27;20047;-89
2023/04/16 00:27:07;;;;;;;155.57;45.28;;;7.70;99.90;;;;;;5119056;27;20478;-89
2023/04/16 00:29:33;;;;;;;196.23;46.92;;;8.10;99.90;;;;;;5116361;27;20518;-89
2023/04/16 00:31:59;;;;;;;200.48;51.60;;;7.60;99.90;;;;;;5123426;27;20039;-88
2023/04/16 00:34:25;;;;;;;177.88;48.45;;;7.70;99.90;;;;;;5116492;27;20043;-89
2023/04/16 00:36:51;;;;;;;209.75;50.30;;;7.70;99.90;;;;;;5117914;27;20038;-89
2023/04/16 00:39:17;;;;;;;209.85;49.95;;;7.60;99.90;;;;;;5118009;27;20500;-89
2023/04/16 00:41:42;;;;;;;162.60;48.35;;;7.70;99.90;;;;;;5110311;27;20047;-88
2023/04/16 00:44:08;;;;;;;242.20;57.63;;;7.60;99.90;;;;;;5097151;27;20113;-89
2023/04/16 00:46:35;;;;;;;237.18;53.78;;;7.60;99.90;;;;;;5097683;27;20481;-89
2023/04/16 00:49:02;;;;;;;174.50;48.55;;;7.70;99.90;;;;;;5112061;27;20035;-90
2023/04/16 00:51:30;;;;;;;236.18;54.40;;;7.70;99.90;;;;;;5122746;27;20149;-90
2023/04/16 00:53:56;;;;;;;232.38;57.08;;;7.60;99.90;;;;;;5103307;27;20071;-89
2023/04/16 00:56:23;;;;;;;232.40;54.75;;;7.60;99.90;;;;;;5106665;27;20043;-89
2023/04/16 00:58:49;;;;;;;198.45;52.20;;;7.60;99.90;;;;;;5115771;27;20042;-89
2023/04/16 01:01:15;;;;;;;285.50;60.92;;;7.90;99.90;;;;;;5106896;27;20087;-89
2023/04/16 01:03:44;;;;;;;299.05;62.75;;;7.70;99.90;;;;;;5102826;27;20039;-89
2023/04/16 01:06:10;;;;;;;216.98;53.88;;;7.60;99.90;;;;;;5105374;27;20034;-90
2023/04/16 01:08:36;;;;;;;176.05;49.97;;;7.60;99.90;;;;;;5104092;27;20474;-89
2023/04/16 01:11:03;;;;;;;223.40;53.60;;;7.70;99.90;;;;;;5109074;27;20043;-89
2023/04/16 01:13:29;;;;;;;200.07;50.67;;;7.70;99.90;;;;;;5112591;27;20038;-89
2023/04/16 01:15:55;;;;;;;321.42;56.10;;;7.60;99.90;;;;;;5109925;27;20133;-89
2023/04/16 01:18:22;;;;;;;300.95;51.25;;;7.80;99.90;;;;;;5111496;27;20130;-89
2023/04/16 01:20:49;;;;;;;273.17;50.92;;;7.60;99.90;;;;;;5117399;27;20189;-89
2023/04/16 01:23:17;;;;;;;272.75;51.15;;;7.50;99.90;;;;;;5115263;27;20046;-89
2023/04/16 01:25:43;;;;;;;244.73;50.42;;;7.50;99.90;;;;;;5096360;27;20515;-88
2023/04/16 01:28:09;;;;;;;259.88;50.03;;;7.60;99.90;;;;;;5097295;27;20467;-88
2023/04/16 01:30:35;;;;;;;305.20;52.28;;;7.50;99.90;;;;;;5113132;27;20062;-88
2023/04/16 01:33:01;;;;;;;199.55;42.50;;;7.60;99.90;;;;;;5110967;27;20051;-88
2023/04/16 01:35:27;;;;;;;151.55;39.75;;;7.50;99.90;;;;;;5105472;27;20050;-89
2023/04/16 01:37:52;;;;;;;179.85;41.17;;;7.50;99.90;;;;;;5102594;27;20047;-89
2023/04/16 01:40:18;;;;;;;222.00;45.78;;;7.50;99.90;;;;;;5117128;27;20348;-88
2023/04/16 01:42:44;;;;;;;233.65;45.67;;;7.70;99.90;;;;;;5116649;27;20133;-88
2023/04/16 01:45:10;;;;;;;202.63;42.78;;;7.50;99.90;;;;;;5117530;27;20042;-89
2023/04/16 01:47:36;;;;;;;127.65;38.58;;;7.40;99.90;;;;;;5113640;27;20042;-88
2023/04/16 01:50:03;;;;;;;224.40;43.15;;;7.40;99.90;;;;;;5096702;27;20478;-89
2023/04/16 01:52:28;;;;;;;255.80;47.70;;;7.50;99.90;;;;;;5111299;27;20043;-88
2023/04/16 01:54:54;;;;;;;163.60;41.53;;;7.40;99.90;;;;;;5107586;27;20042;-88
2023/04/16 01:57:20;;;;;;;209.48;45.45;;;7.40;99.90;;;;;;5098921;27;20104;-88
2023/04/16 01:59:46;;;;;;;198.50;41.65;;;7.40;99.90;;;;;;5107679;27;20038;-89
2023/04/16 02:02:14;;;;;;;209.25;44.38;;;7.40;99.90;;;;;;5098579;27;20043;-88
2023/04/16 02:04:42;;;;;;;207.75;44.67;;;7.40;99.90;;;;;;5116560;27;20034;-89
2023/04/16 02:07:08;;;;;;;178.77;45.65;;;7.40;99.90;;;;;;5102721;27;20379;-89
2023/04/16 02:09:35;;;;;;;216.02;46.88;;;7.40;99.90;;;;;;5105784;27;20103;-88
2023/04/16 02:12:02;;;;;;;211.77;48.17;;;7.40;99.90;;;;;;5112521;27;20077;-88
2023/04/16 02:14:28;;;;;;;295.75;57.35;;;7.50;99.90;;;;;;5115729;27;20078;-88
2023/04/16 02:16:54;;;;;;;188.23;49.85;;;7.50;99.90;;;;;;5102182;27;20137;-89
2023/04/16 02:19:20;;;;;;;187.30;50.15;;;7.50;99.90;;;;;;5116194;27;20134;-90
2023/04/16 02:21:46;;;;;;;218.35;56.53;;;7.50;99.90;;;;;;5101226;27;20049;-89
2023/04/16 02:24:12;;;;;;;193.32;53.08;;;7.50;99.90;;;;;;5106099;27;20479;-88
2023/04/16 02:26:38;;;;;;;186.73;54.20;;;7.60;99.90;;;;;;5112797;27;20056;-88
2023/04/16 02:29:04;;;;;;;185.30;52.58;;;7.60;99.90;;;;;;5105420;27;20051;-89
2023/04/16 02:31:30;;;;;;;173.05;51.85;;;7.60;99.90;;;;;;5111846;27;20070;-88
2023/04/16 02:33:56;;;;;;;193.23;55.60;;;7.60;99.90;;;;;;5116202;27;20049;-88
2023/04/16 02:36:22;;;;;;;170.93;54.45;;;7.60;99.90;;;;;;5100328;27;20375;-89
2023/04/16 02:38:48;;;;;;;168.25;52.97;;;7.70;99.90;;;;;;5115941;27;20081;-88
2023/04/16 02:41:13;;;;;;;140.10;49.70;;;7.60;99.90;;;;;;5110936;27;20498;-88
2023/04/16 02:43:39;;;;;;;158.23;52.00;;;7.70;99.90;;;;;;5094300;27;20074;-88
2023/04/16 02:46:05;;;;;;;160.50;51.45;;;7.70;99.90;;;;;;5108347;27;20094;-88
2023/04/16 02:48:31;;;;;;;158.27;53.03;;;7.70;99.90;;;;;;5095174;27;20043;-88
2023/04/16 02:50:57;;;;;;;180.13;53.25;;;7.70;99.90;;;;;;5111085;27;20473;-89
2023/04/16 02:53:23;;;;;;;185.20;54.10;;;7.70;99.90;;;;;;5105194;27;20058;-88
2023/04/16 02:55:51;;;;;;;190.20;52.83;;;7.70;99.90;;;;;;5109395;27;20039;-88
2023/04/16 02:58:18;;;;;;;172.15;50.38;;;7.70;99.90;;;;;;5095184;27;20382;-88
2023/04/16 03:00:44;;;;;;;158.57;47.65;;;7.70;99.90;;;;;;5112295;27;20045;-88
2023/04/16 03:03:10;;;;;;;160.65;48.35;;;7.60;99.90;;;;;;5114733;27;20047;-88
2023/04/16 03:05:36;;;;;;;144.65;46.58;;;7.70;99.90;;;;;;5127322;27;20039;-88
2023/04/16 03:08:02;;;;;;;131.05;43.05;;;7.70;99.90;;;;;;5122328;27;20042;-88
2023/04/16 03:10:28;;;;;;;147.35;44.33;;;7.60;99.90;;;;;;5101082;27;20061;-89
2023/04/16 03:12:54;;;;;;;155.13;45.25;;;7.70;99.90;;;;;;5115050;27;20493;-88
2023/04/16 03:15:20;;;;;;;138.90;44.70;;;7.60;99.90;;;;;;5128261;27;20039;-88
2023/04/16 03:17:45;;;;;;;151.95;46.75;;;7.60;99.90;;;;;;5104753;27;20494;-88
2023/04/16 03:20:13;;;;;;;156.40;46.20;;;7.60;99.90;;;;;;5112238;28;20107;-88
2023/04/16 03:22:39;;;;;;;144.55;44.97;;;7.50;99.90;;;;;;5104640;27;20050;-88
2023/04/16 03:25:06;;;;;;;189.35;46.28;;;8.00;99.90;;;;;;5110865;28;20069;-88
2023/04/16 03:27:32;;;;;;;164.95;45.58;;;7.40;99.90;;;;;;5104304;27;20097;-88
2023/04/16 03:29:58;;;;;;;187.50;46.67;;;7.50;99.90;;;;;;5115391;27;20045;-88
2023/04/16 03:32:24;;;;;;;214.98;48.72;;;7.50;99.90;;;;;;5103030;28;20019;-88
2023/04/16 03:34:50;;;;;;;356.55;61.88;;;7.50;99.90;;;;;;5098655;27;20550;-88
2023/04/16 03:37:16;;;;;;;235.57;50.50;;;7.80;99.90;;;;;;5114178;27;20467;-88
2023/04/16 03:39:41;;;;;;;213.23;49.53;;;7.50;99.90;;;;;;5096440;28;20058;-88
2023/04/16 03:42:07;;;;;;;211.23;47.80;;;7.40;99.90;;;;;;5106070;27;20091;-87
2023/04/16 03:44:33;;;;;;;217.93;48.80;;;7.40;99.90;;;;;;5111097;28;20035;-88
2023/04/16 03:46:59;;;;;;;222.25;49.95;;;7.60;99.90;;;;;;5093942;28;20042;-88
2023/04/16 03:49:25;;;;;;;272.23;53.80;;;7.50;99.90;;;;;;5111754;27;20051;-88
2023/04/16 03:51:50;;;;;;;216.75;51.45;;;7.60;99.90;;;;;;5114961;27;20045;-88
2023/04/16 03:54:16;;;;;;;179.45;47.10;;;7.50;99.90;;;;;;5111663;28;20122;-88
2023/04/16 03:56:42;;;;;;;201.07;47.53;;;7.50;99.90;;;;;;5095326;28;20103;-89
2023/04/16 03:59:08;;;;;;;188.68;48.67;;;7.60;99.90;;;;;;5098643;27;20041;-88
2023/04/16 04:01:37;;;;;;;240.43;50.03;;;7.60;99.90;;;;;;5115414;27;20107;-88
2023/04/16 04:04:02;;;;;;;205.38;48.20;;;7.70;99.90;;;;;;5115383;27;20031;-88
2023/04/16 04:06:28;;;;;;;235.05;49.83;;;7.60;99.90;;;;;;5102398;28;20053;-88
2023/04/16 04:08:54;;;;;;;193.77;46.92;;;7.50;99.90;;;;;;5116083;27;20035;-87
2023/04/16 04:11:20;;;;;;;176.98;44.20;;;7.50;99.90;;;;;;5114996;27;20039;-89
2023/04/16 04:13:45;;;;;;;188.05;45.55;;;7.60;99.90;;;;;;5113628;27;20051;-88
2023/04/16 04:16:11;;;;;;;150.32;41.75;;;7.50;99.90;;;;;;5097757;27;20506;-89
2023/04/16 04:18:37;;;;;;;140.52;42.15;;;7.80;99.90;;;;;;5098313;27;20539;-88
2023/04/16 04:21:06;;;;;;;136.27;39.75;;;7.80;99.90;;;;;;5097140;27;20478;-88
2023/04/16 04:23:32;;;;;;;134.02;37.88;;;7.50;99.90;;;;;;5116970;27;20046;-88
2023/04/16 04:25:58;;;;;;;146.52;42.55;;;7.40;99.90;;;;;;5107240;27;20130;-88
2023/04/16 04:28:24;;;;;;;139.15;40.17;;;7.40;99.90;;;;;;5128257;27;20138;-89
2023/04/16 04:30:50;;;;;;;172.32;44.10;;;7.80;99.90;;;;;;5098674;27;20043;-88
2023/04/16 04:33:15;;;;;;;180.57;44.53;;;7.40;99.90;;;;;;5111024;27;20149;-88
2023/04/16 04:35:41;;;;;;;141.25;41.58;;;7.30;99.90;;;;;;5096177;27;20039;-88
2023/04/16 04:38:06;;;;;;;149.73;43.20;;;7.40;99.90;;;;;;5098165;27;20035;-88
2023/04/16 04:40:32;;;;;;;134.00;40.67;;;7.30;99.90;;;;;;5096817;27;20099;-88
2023/04/16 04:42:58;;;;;;;127.32;40.40;;;7.40;99.90;;;;;;5115173;27;20035;-87
2023/04/16 04:45:25;;;;;;;124.60;39.80;;;7.60;99.90;;;;;;5117444;27;20053;-88
2023/04/16 04:47:52;;;;;;;127.43;38.92;;;7.20;99.90;;;;;;5104813;27;20038;-88
2023/04/16 04:50:17;;;;;;;119.40;39.20;;;7.10;99.90;;;;;;5113525;27;20109;-87
2023/04/16 04:52:43;;;;;;;134.50;39.63;;;7.10;99.90;;;;;;5110524;27;20059;-88
2023/04/16 04:55:09;;;;;;;154.65;43.88;;;7.30;99.90;;;;;;5109865;27;20054;-87
2023/04/16 04:57:34;;;;;;;148.95;40.60;;;7.10;99.90;;;;;;5111246;27;20137;-88
2023/04/16 05:00:02;;;;;;;150.32;42.25;;;7.10;99.90;;;;;;5110058;27;20383;-88
2023/04/16 05:02:28;;;;;;;156.63;42.17;;;7.10;99.90;;;;;;5098875;27;20042;-87
2023/04/16 05:04:54;;;;;;;188.07;47.05;;;7.10;99.90;;;;;;5108047;27;20075;-88
2023/04/16 05:07:21;;;;;;;169.25;41.25;;;7.10;99.90;;;;;;5117630;27;20514;-88
2023/04/16 05:09:47;;;;;;;177.50;42.38;;;7.40;99.90;;;;;;5117078;27;20091;-87
2023/04/16 05:12:12;;;;;;;158.07;39.92;;;7.90;99.90;;;;;;5097499;27;20047;-87
2023/04/16 05:14:38;;;;;;;185.90;43.58;;;7.20;99.90;;;;;;5098610;27;20122;-87
2023/04/16 05:17:04;;;;;;;202.52;42.88;;;7.20;99.90;;;;;;5101864;27;20042;-88
2023/04/16 05:19:29;;;;;;;185.93;43.15;;;7.20;99.90;;;;;;5116350;27;20043;-88
2023/04/16 05:21:55;;;;;;;213.55;48.67;;;7.30;99.90;;;;;;5111726;27;20055;-88
2023/04/16 05:24:21;;;;;;;211.18;44.08;;;7.30;99.90;;;;;;5106817;27;20111;-89
2023/04/16 05:26:47;;;;;;;217.20;45.55;;;7.30;99.90;;;;;;5103417;27;20034;-88
2023/04/16 05:29:13;;;;;;;206.25;43.92;;;7.30;99.90;;;;;;5105208;27;20111;-87
2023/04/16 05:31:39;;;;;;;214.18;45.90;;;7.60;99.90;;;;;;5109580;27;20408;-88
2023/04/16 05:34:04;;;;;;;286.25;51.80;;;7.40;99.90;;;;;;5096038;27;20042;-87
2023/04/16 05:36:30;;;;;;;200.25;43.88;;;7.40;99.90;;;;;;5112531;27;20051;-89
2023/04/16 05:38:56;;;;;;;192.07;45.30;;;7.30;99.90;;;;;;5108125;27;20046;-88
2023/04/16 05:41:21;;;;;;;176.57;47.47;;;7.40;99.90;;;;;;5102635;27;20133;-87
2023/04/16 05:43:47;;;;;;;156.80;42.60;;;7.50;99.90;;;;;;5116937;27;20050;-87
2023/04/16 05:46:13;;;;;;;176.68;46.72;;;7.80;99.90;;;;;;5097663;27;20046;-88
2023/04/16 05:48:38;;;;;;;172.20;47.13;;;7.50;99.90;;;;;;5096606;27;20046;-88
2023/04/16 05:51:04;;;;;;;169.52;43.67;;;7.60;99.90;;;;;;5109308;27;20039;-88
2023/04/16 05:53:30;;;;;;;178.05;44.03;;;7.60;99.90;;;;;;5107336;27;20050;-88
2023/04/16 05:55:55;;;;;;;187.95;43.63;;;7.60;99.90;;;;;;5116696;27;20397;-88
2023/04/16 05:58:21;;;;;;;160.82;41.65;;;7.80;99.90;;;;;;5115931;27;20401;-87
2023/04/16 06:00:47;;;;;;;155.65;44.08;;;7.70;99.90;;;;;;5116396;27;20114;-88
2023/04/16 06:03:13;;;;;;;185.35;43.63;;;7.70;99.90;;;;;;5115831;27;20039;-88
2023/04/16 06:05:38;;;;;;;141.25;40.63;;;7.70;99.90;;;;;;5101882;27;20031;-88
2023/04/16 06:08:04;;;;;;;140.15;38.83;;;8.10;99.90;;;;;;5104607;27;20410;-88
2023/04/16 06:10:30;;;;;;;113.43;36.92;;;7.70;99.90;;;;;;5108994;27;20332;-88
2023/04/16 06:12:55;;;;;;;162.23;41.00;;;7.80;99.90;;;;;;5096444;27;20054;-88
2023/04/16 06:15:21;;;;;;;139.50;39.17;;;7.80;99.90;;;;;;5095590;27;20039;-88
2023/04/16 06:17:49;;;;;;;127.65;40.45;;;7.80;99.90;;;;;;5106805;27;20508;-87
2023/04/16 06:20:15;;;;;;;131.73;37.17;;;7.80;99.90;;;;;;5116391;27;20042;-87
2023/04/16 06:22:40;;;;;;;157.48;37.83;;;7.80;99.90;;;;;;5103704;27;20043;-87
2023/04/16 06:25:06;;;;;;;149.18;37.97;;;7.80;99.90;;;;;;5096437;27;20522;-88
2023/04/16 06:27:32;;;;;;;135.07;34.75;;;7.90;99.90;;;;;;5102690;27;20043;-88
2023/04/16 06:29:58;;;;;;;129.43;35.53;;;7.90;99.90;;;;;;5099098;27;20087;-88
2023/04/16 06:32:24;;;;;;;140.68;34.03;;;7.90;99.90;;;;;;5111357;27;20104;-89
2023/04/16 06:34:50;;;;;;;116.28;36.65;;;7.90;99.90;;;;;;5111786;27;20035;-89
2023/04/16 06:37:16;;;;;;;153.10;38.38;;;8.00;99.90;;;;;;5110437;27;20042;-89
2023/04/16 06:39:41;;;;;;;137.45;35.90;;;8.10;99.90;;;;;;5111165;27;20045;-89
2023/04/16 06:42:07;;;;;;;118.43;32.80;;;8.10;99.90;;;;;;5120060;27;20039;-89
2023/04/16 06:44:34;;;;;;;105.43;30.55;;;8.40;99.90;;;;;;5109549;27;20088;-89
2023/04/16 06:47:00;;;;;;;108.05;28.95;;;8.30;99.90;;;;;;5105617;28;20047;-88
2023/04/16 06:49:26;;;;;;;116.18;31.33;;;8.30;99.90;;;;;;5100916;27;20032;-90
2023/04/16 06:51:52;;;;;;;103.70;28.23;;;8.40;99.90;;;;;;5098232;27;20043;-90
2023/04/16 06:54:18;;;;;;;107.53;29.98;;;8.40;99.90;;;;;;5109001;27;20035;-89
2023/04/16 06:56:44;;;;;;;101.35;30.05;;;8.50;99.90;;;;;;5117774;27;20498;-89
2023/04/16 06:59:10;;;;;;;92.65;28.92;;;8.60;99.90;;;;;;5107166;27;20082;-91
2023/04/16 07:01:35;;;;;;;85.85;28.17;;;8.60;99.90;;;;;;5099060;28;20490;-89
2023/04/16 07:04:02;;;;;;;81.43;26.17;;;8.70;99.90;;;;;;5111950;27;20039;-91
2023/04/16 07:06:28;;;;;;;85.30;27.50;;;8.80;99.90;;;;;;5098589;27;20046;-89
2023/04/16 07:08:53;;;;;;;78.32;24.77;;;8.90;99.90;;;;;;5114282;28;20402;-89
2023/04/16 07:11:19;;;;;;;74.95;25.55;;;8.90;99.90;;;;;;5121080;27;20090;-88
2023/04/16 07:13:45;;;;;;;73.15;24.92;;;9.20;99.90;;;;;;5108397;27;20046;-91
2023/04/16 07:16:11;;;;;;;78.97;23.15;;;9.00;99.90;;;;;;5094553;28;20397;-90
2023/04/16 07:18:37;;;;;;;76.65;23.55;;;9.10;99.90;;;;;;5104212;28;20050;-89
2023/04/16 07:21:03;;;;;;;70.05;23.23;;;9.20;99.90;;;;;;5113973;28;20039;-90
2023/04/16 07:23:29;;;;;;;75.20;23.63;;;9.20;99.90;;;;;;5093036;28;20094;-89
2023/04/16 07:25:55;;;;;;;61.60;21.45;;;9.30;99.90;;;;;;5085951;28;20050;-89
2023/04/16 07:28:21;;;;;;;69.43;21.75;;;9.50;99.90;;;;;;5105535;28;20059;-91
2023/04/16 07:30:47;;;;;;;70.68;24.73;;;9.40;99.90;;;;;;5111354;28;20043;-90
2023/04/16 07:33:12;;;;;;;72.47;21.88;;;9.40;99.90;;;;;;5105919;28;20495;-89
2023/04/16 07:35:38;;;;;;;72.32;22.00;;;9.40;99.90;;;;;;5102883;27;20432;-89
2023/04/16 07:38:04;;;;;;;59.58;22.63;;;9.40;99.90;;;;;;5113445;27;20043;-89
2023/04/16 07:40:30;;;;;;;68.72;22.20;;;9.50;99.90;;;;;;5118459;27;20039;-91
2023/04/16 07:42:56;;;;;;;55.17;22.20;;;9.50;99.90;;;;;;5119702;28;20045;-90
2023/04/16 07:45:22;;;;;;;60.35;22.98;;;9.60;99.90;;;;;;5105778;28;20047;-89
2023/04/16 07:47:48;;;;;;;63.33;22.17;;;9.60;99.90;;;;;;5100406;27;20070;-89
2023/04/16 07:50:15;;;;;;;62.50;22.00;;;9.70;99.90;;;;;;5118108;27;20093;-89
2023/04/16 07:52:42;;;;;;;63.78;22.63;;;9.70;99.90;;;;;;5106851;27;20047;-91
2023/04/16 07:55:08;;;;;;;59.65;21.83;;;9.30;99.90;;;;;;5115665;27;20127;-90
2023/04/16 07:57:34;;;;;;;65.70;23.20;;;9.70;99.90;;;;;;5116268;27;20100;-92
2023/04/16 08:00:01;;;;;;;56.60;22.15;;;9.70;99.90;;;;;;5114018;27;20110;-90
2023/04/16 08:02:26;;;;;;;56.38;20.08;;;9.70;99.90;;;;;;5120826;27;20075;-90
2023/04/16 08:04:52;;;;;;;49.38;19.77;;;9.80;99.90;;;;;;5123899;27;20437;-91
2023/04/16 08:07:18;;;;;;;53.60;19.50;;;9.80;99.90;;;;;;5125205;27;20047;-91
2023/04/16 08:09:48;;;;;;;62.33;19.90;;;9.80;99.90;;;;;;5116102;27;20115;-91
2023/04/16 08:12:16;;;;;;;57.55;19.20;;;9.90;99.90;;;;;;5111903;27;20131;-92
2023/04/16 08:14:41;;;;;;;53.05;19.67;;;10.00;99.90;;;;;;5108913;27;20038;-91
2023/04/16 08:17:07;;;;;;;52.97;19.70;;;10.00;99.90;;;;;;5116924;27;20038;-91
2023/04/16 08:19:33;;;;;;;47.15;17.77;;;10.20;99.90;;;;;;5111909;27;20078;-90
2023/04/16 08:21:59;;;;;;;51.05;19.00;;;10.30;99.90;;;;;;5095167;28;20078;-91
2023/04/16 08:24:25;;;;;;;51.25;17.85;;;10.30;99.90;;;;;;5090525;27;20035;-91
2023/04/16 08:26:50;;;;;;;46.72;18.05;;;10.40;99.90;;;;;;5100659;27;20043;-90
2023/04/16 08:29:16;;;;;;;51.22;17.73;;;10.50;99.90;;;;;;5114538;27;20043;-91
2023/04/16 08:31:42;;;;;;;45.53;16.00;;;10.70;99.90;;;;;;5100511;27;20133;-91
2023/04/16 08:34:10;;;;;;;43.42;16.90;;;10.70;99.90;;;;;;5114487;27;20148;-91
2023/04/16 08:36:36;;;;;;;49.60;16.25;;;10.90;99.90;;;;;;5095206;28;20039;-90
2023/04/16 08:39:01;;;;;;;39.70;16.23;;;11.00;99.90;;;;;;5095562;28;20126;-92
2023/04/16 08:41:31;;;;;;;49.05;17.00;;;11.10;99.90;;;;;;5107729;28;20086;-90
2023/04/16 08:44:03;;;;;;;40.47;16.10;;;11.20;99.90;;;;;;5087682;28;20039;-91
2023/04/16 08:46:30;;;;;;;40.55;15.10;;;11.30;99.90;;;;;;5097249;28;20108;-91
2023/04/16 08:48:59;;;;;;;35.92;15.10;;;11.30;99.90;;;;;;5101301;28;20027;-91
2023/04/16 08:51:32;;;;;;;43.40;15.70;;;11.40;99.90;;;;;;5098057;28;20048;-91
2023/04/16 08:54:03;;;;;;;33.03;15.43;;;11.50;99.90;;;;;;5108391;27;20132;-91
2023/04/16 08:56:30;;;;;;;43.13;15.23;;;11.50;99.90;;;;;;5094175;28;20052;-90
2023/04/16 08:58:57;;;;;;;33.70;14.77;;;11.60;99.90;;;;;;5108400;27;20112;-90
2023/04/16 09:01:25;;;;;;;37.90;17.08;;;11.70;99.90;;;;;;5095029;27;20043;-89
2023/04/16 09:03:52;;;;;;;37.00;15.32;;;11.70;99.90;;;;;;5113841;27;20047;-89
2023/04/16 09:06:18;;;;;;;35.35;15.25;;;11.80;99.90;;;;;;5103838;28;20040;-90
2023/04/16 09:08:45;;;;;;;36.83;15.35;;;11.90;99.90;;;;;;5093389;27;20054;-89
2023/04/16 09:11:12;;;;;;;33.33;15.13;;;12.00;99.90;;;;;;5112706;27;20520;-89
2023/04/16 09:13:38;;;;;;;39.10;14.43;;;12.00;99.90;;;;;;5100108;27;20486;-89
2023/04/16 09:16:07;;;;;;;31.08;14.90;;;12.10;99.90;;;;;;5110525;27;20092;-88
2023/04/16 09:18:33;;;;;;;36.65;15.90;;;12.20;99.90;;;;;;5115910;27;20043;-88
2023/04/16 09:20:59;;;;;;;30.88;15.68;;;12.30;99.90;;;;;;5123848;27;20035;-88
2023/04/16 09:23:24;;;;;;;31.25;15.20;;;12.30;99.90;;;;;;5113615;27;20044;-88
2023/04/16 09:25:50;;;;;;;31.73;13.55;;;12.40;99.90;;;;;;5090387;27;20069;-89
2023/04/16 09:28:37;;;;;;;37.13;14.95;;;12.40;99.90;;;;;;5096969;28;20043;-90
2023/04/16 09:31:12;;;;;;;31.60;14.05;;;12.50;99.90;;;;;;5089589;27;20600;-89
2023/04/16 09:33:38;;;;;;;31.63;13.95;;;12.60;99.90;;;;;;5097226;28;20479;-89
2023/04/16 09:36:05;;;;;;;28.92;14.27;;;12.70;99.90;;;;;;5099912;27;20043;-89
2023/04/16 09:38:46;;;;;;;27.30;12.80;;;12.80;99.90;;;;;;5103895;28;20051;-89
2023/04/16 09:41:15;;;;;;;31.80;13.63;;;12.90;99.90;;;;;;5093666;27;20077;-90
2023/04/16 09:43:41;;;;;;;40.67;14.80;;;12.90;99.90;;;;;;5113531;27;20070;-89
2023/04/16 09:46:11;;;;;;;36.35;14.10;;;12.90;99.90;;;;;;5107341;28;20040;-88
2023/04/16 09:48:37;;;;;;;30.92;13.85;;;12.90;99.90;;;;;;5086407;27;20039;-87
2023/04/16 09:51:05;;;;;;;30.98;13.57;;;12.90;99.90;;;;;;5105174;28;20407;-88
2023/04/16 09:53:31;;;;;;;34.10;13.70;;;13.00;99.90;;;;;;5094401;27;20047;-88
2023/04/16 09:55:58;;;;;;;33.08;13.43;;;13.00;99.90;;;;;;5107749;28;20049;-87
2023/04/16 09:58:24;;;;;;;23.48;11.95;;;13.10;99.90;;;;;;5087180;27;20035;-87
2023/04/16 10:00:59;;;;;;;31.00;13.73;;;13.10;99.90;;;;;;5123291;27;20134;-87
2023/04/16 10:03:31;;;;;;;26.27;12.93;;;13.20;99.90;;;;;;5118992;27;20084;-88
2023/04/16 10:06:08;;;;;;;34.03;14.93;;;13.20;99.90;;;;;;5104342;28;20135;-88
2023/04/16 10:08:35;;;;;;;30.92;14.02;;;13.30;99.90;;;;;;5099968;27;20139;-88
2023/04/16 10:11:01;;;;;;;30.63;13.77;;;13.30;99.90;;;;;;5083764;27;20214;-88
2023/04/16 10:13:29;;;;;;;35.50;13.68;;;13.40;99.90;;;;;;5105623;27;20057;-88
2023/04/16 10:15:56;;;;;;;30.88;12.68;;;13.50;99.90;;;;;;5102769;28;20031;-88
2023/04/16 10:18:22;;;;;;;44.45;15.10;;;13.50;99.90;;;;;;5099790;27;20047;-87
2023/04/16 10:20:49;;;;;;;30.27;12.85;;;13.60;99.90;;;;;;5081876;27;20039;-88
2023/04/16 10:23:15;;;;;;;34.85;13.02;;;13.70;99.90;;;;;;5104698;27;20058;-88
2023/04/16 10:25:42;;;;;;;32.00;13.73;;;13.70;99.90;;;;;;5083933;27;20390;-88
2023/04/16 10:28:08;;;;;;;35.92;13.18;;;13.70;99.90;;;;;;5103762;27;20051;-88
2023/04/16 10:30:35;;;;;;;24.67;13.52;;;13.70;99.90;;;;;;5084908;27;20043;-87
2023/04/16 10:33:03;;;;;;;30.23;13.70;;;13.80;99.90;;;;;;5111345;27;20328;-88
2023/04/16 10:35:29;;;;;;;32.70;13.43;;;13.90;99.90;;;;;;5110086;27;20371;-88
2023/04/16 10:37:56;;;;;;;27.08;12.82;;;14.00;99.90;;;;;;5115051;27;20047;-88
2023/04/16 10:40:23;;;;;;;40.92;14.57;;;14.00;99.90;;;;;;5102187;27;20065;-89
2023/04/16 10:42:58;;;;;;;35.45;13.95;;;14.10;99.90;;;;;;5115763;27;20489;-89
2023/04/16 10:45:29;;;;;;;28.77;13.75;;;14.10;99.90;;;;;;5100348;28;20043;-88
2023/04/16 10:47:56;;;;;;;32.70;13.98;;;14.20;99.90;;;;;;5104368;28;20455;-88
2023/04/16 10:50:22;;;;;;;31.35;13.35;;;14.30;99.90;;;;;;5103443;27;20043;-89
2023/04/16 10:52:48;;;;;;;34.03;13.45;;;14.30;99.90;;;;;;5097276;27;20046;-89
2023/04/16 10:55:16;;;;;;;34.15;14.30;;;14.30;99.90;;;;;;5099271;28;20047;-88
2023/04/16 10:57:42;;;;;;;33.72;13.93;;;14.30;99.90;;;;;;5108484;27;20067;-88
2023/04/16 11:00:21;;;;;;;29.75;13.25;;;14.30;99.90;;;;;;5099671;28;20530;-88
2023/04/16 11:02:52;;;;;;;28.85;13.38;;;14.30;99.90;;;;;;5107603;28;20035;-88
2023/04/16 11:05:22;;;;;;;28.58;13.25;;;14.30;99.90;;;;;;5088297;28;20047;-89
2023/04/16 11:07:48;;;;;;;34.67;14.35;;;14.10;99.90;;;;;;5087935;28;20289;-89
2023/04/16 11:10:14;;;;;;;30.80;13.48;;;14.10;99.90;;;;;;5097504;27;20051;-88
2023/04/16 11:12:43;;;;;;;31.30;13.32;;;14.20;99.90;;;;;;5110619;28;20616;-88
2023/04/16 11:15:10;;;;;;;33.47;14.10;;;14.10;99.90;;;;;;5098395;28;20051;-89
2023/04/16 11:17:44;;;;;;;37.10;14.20;;;14.20;99.90;;;;;;5093959;28;20116;-88
2023/04/16 11:20:15;;;;;;;30.88;13.00;;;14.20;99.90;;;;;;5104229;28;20036;-88
2023/04/16 11:22:41;;;;;;;31.90;13.82;;;14.20;99.90;;;;;;5085331;27;20107;-88
2023/04/16 11:25:07;;;;;;;33.80;14.68;;;14.00;99.90;;;;;;5094708;28;20118;-88
2023/04/16 11:27:34;;;;;;;34.45;15.02;;;13.90;99.90;;;;;;5087927;27;20086;-88
2023/04/16 11:30:03;;;;;;;34.33;15.25;;;13.80;99.90;;;;;;5111589;27;20031;-88
2023/04/16 11:32:33;;;;;;;30.05;14.68;;;13.80;99.90;;;;;;5098107;27;20050;-88
2023/04/16 11:35:03;;;;;;;36.22;14.25;;;13.80;99.90;;;;;;5117604;27;20071;-88
2023/04/16 11:37:36;;;;;;;33.03;15.27;;;13.80;99.90;;;;;;5116431;27;20083;-88
2023/04/16 11:40:08;;;;;;;29.48;14.30;;;13.70;99.90;;;;;;5100203;27;20039;-88
2023/04/16 11:42:36;;;;;;;35.40;14.88;;;13.70;99.90;;;;;;5097918;27;20035;-88
2023/04/16 11:45:03;;;;;;;29.55;14.85;;;13.80;99.90;;;;;;5097815;27;20041;-88
2023/04/16 11:47:30;;;;;;;33.92;15.35;;;13.80;99.90;;;;;;5098329;27;20046;-88
2023/04/16 11:49:57;;;;;;;31.73;15.32;;;13.90;99.90;;;;;;5119045;27;20668;-88
2023/04/16 11:52:26;;;;;;;34.15;15.48;;;14.00;99.90;;;;;;5103174;27;20043;-89
2023/04/16 11:54:52;;;;;;;34.33;16.25;;;14.00;99.90;;;;;;5110866;27;20122;-89
2023/04/16 11:57:29;;;;;;;30.10;15.75;;;14.00;99.90;;;;;;5111664;27;20082;-88
2023/04/16 11:59:57;;;;;;;38.95;15.65;;;14.10;99.90;;;;;;5097624;27;20035;-88
2023/04/16 12:02:48;;;;;;;34.05;15.02;;;14.20;99.90;;;;;;5114970;27;20038;-88
2023/04/16 12:05:32;;;;;;;29.58;14.10;;;14.10;99.90;;;;;;5103643;27;20050;-89
2023/04/16 12:08:00;;;;;;;30.98;14.95;;;14.10;99.90;;;;;;5109520;27;20046;-89
2023/04/16 12:10:26;;;;;;;31.40;14.80;;;14.00;99.90;;;;;;5114998;27;20031;-88
2023/04/16 12:12:52;;;;;;;32.17;15.75;;;14.00;99.90;;;;;;5107672;27;20043;-88
2023/04/16 12:15:18;;;;;;;32.45;15.57;;;14.10;99.90;;;;;;5114704;27;20095;-88
2023/04/16 12:17:43;;;;;;;37.25;15.77;;;14.20;99.90;;;;;;5118444;27;20087;-88
2023/04/16 12:20:14;;;;;;;35.20;15.70;;;14.20;99.90;;;;;;5101210;27;20036;-89
2023/04/16 12:22:47;;;;;;;31.70;15.68;;;14.20;99.90;;;;;;5097095;27;20082;-89
2023/04/16 12:25:15;;;;;;;33.30;15.75;;;14.20;99.90;;;;;;5116088;27;20030;-89